createdAt,value
2022-11-19T00:01:34.351Z,100821.19
2022-11-19T00:04:02.122Z,100823.06
2022-11-19T00:06:31.190Z,100827.44
2022-11-19T00:08:58.805Z,100830.81
2022-11-19T00:11:42.074Z,100823.22
2022-11-19T00:14:10.715Z,100827.88
2022-11-19T00:16:38.406Z,100828.03
2022-11-19T00:19:06.324Z,100831.59
2022-11-19T00:21:35.474Z,100823.72
2022-11-19T00:24:03.171Z,100822.03
2022-11-19T00:26:30.948Z,100815.47
2022-11-19T00:28:58.741Z,100823.22
2022-11-19T00:31:26.394Z,100819.84
2022-11-19T00:33:55.107Z,100812.69
2022-11-19T00:36:23.841Z,100816.06
2022-11-19T00:38:52.930Z,100817.97
2022-11-19T00:41:20.646Z,100828.44
2022-11-19T00:43:48.742Z,100826.25
2022-11-19T00:46:17.972Z,100828.97
2022-11-19T00:48:45.759Z,100828.13
2022-11-19T00:51:14.262Z,100843.81
2022-11-19T00:53:42.176Z,100840.38
2022-11-19T00:56:12.932Z,100835.38
2022-11-19T00:58:41.025Z,100841.38
2022-11-19T01:01:09.788Z,100846.63
2022-11-19T01:03:38.366Z,100857.00
2022-11-19T01:06:06.838Z,100847.56
2022-11-19T01:08:34.535Z,100859.09
2022-11-19T01:11:05.872Z,100866.00
2022-11-19T01:13:36.059Z,100865.91
2022-11-19T01:16:05.514Z,100859.69
2022-11-19T01:18:33.553Z,100874.75
2022-11-19T01:21:01.599Z,100880.09
2022-11-19T01:23:29.607Z,100879.06
2022-11-19T01:25:57.401Z,100883.53
2022-11-19T01:28:25.484Z,100879.91
2022-11-19T01:30:54.910Z,100882.44
2022-11-19T01:33:23.463Z,100883.53
2022-11-19T01:35:58.391Z,100888.88
2022-11-19T01:38:26.097Z,100889.75
2022-11-19T01:40:53.856Z,100897.59
2022-11-19T01:43:21.568Z,100897.78
2022-11-19T01:45:52.712Z,100892.56
2022-11-19T01:48:24.399Z,100913.31
2022-11-19T01:50:54.230Z,100905.41
2022-11-19T01:53:23.717Z,100907.94
2022-11-19T01:55:51.917Z,100896.72
2022-11-19T01:58:22.619Z,100904.56
2022-11-19T02:00:50.293Z,100905.53
2022-11-19T02:03:19.852Z,100910.84
2022-11-19T02:05:49.269Z,100911.97
2022-11-19T02:08:39.712Z,100908.41
2022-11-19T02:11:32.134Z,100924.03
2022-11-19T02:14:10.388Z,100914.63
2022-11-19T02:16:43.271Z,100936.56
2022-11-19T02:19:18.213Z,100933.09
2022-11-19T02:21:54.755Z,100936.41
2022-11-19T02:24:41.984Z,100942.63
2022-11-19T02:27:44.863Z,100929.97
2022-11-19T02:30:16.500Z,100927.88
2022-11-19T02:32:58.808Z,100942.34
2022-11-19T02:35:36.296Z,100938.03
2022-11-19T02:38:06.513Z,100953.94
2022-11-19T02:40:38.172Z,100955.81
2022-11-19T02:43:15.922Z,100955.03
2022-11-19T02:45:47.756Z,100958.50
2022-11-19T02:48:17.692Z,100958.41
2022-11-19T02:50:47.480Z,100957.78
2022-11-19T02:53:15.181Z,100959.81
2022-11-19T02:56:03.402Z,100957.13
2022-11-19T02:58:50.296Z,100962.25
2022-11-19T03:01:37.325Z,100953.66
2022-11-19T03:04:23.109Z,100946.78
2022-11-19T03:06:50.971Z,100959.03
2022-11-19T03:09:19.353Z,100960.88
2022-11-19T03:11:49.002Z,100959.28
2022-11-19T03:14:37.220Z,100954.88
2022-11-19T03:17:09.348Z,100969.19
2022-11-19T03:19:38.860Z,100951.28
2022-11-19T03:22:11.576Z,100970.72
2022-11-19T03:24:43.398Z,100964.59
2022-11-19T03:27:13.739Z,100958.56
2022-11-19T03:29:44.311Z,100965.66
2022-11-19T03:32:16.132Z,100968.56
2022-11-19T03:34:45.382Z,100986.09
2022-11-19T03:37:15.140Z,100967.81
2022-11-19T03:39:44.197Z,100972.41
2022-11-19T03:42:14.133Z,100973.63
2022-11-19T03:44:44.877Z,100978.84
2022-11-19T03:47:18.172Z,100970.97
2022-11-19T03:49:49.610Z,100972.56
2022-11-19T03:52:19.541Z,100983.00
2022-11-19T03:54:47.354Z,100981.41
2022-11-19T03:57:21.705Z,100978.84
2022-11-19T03:59:49.466Z,100983.94
2022-11-19T04:02:19.191Z,101011.91
2022-11-19T04:04:47.280Z,100993.13
2022-11-19T04:07:17.097Z,100996.75
2022-11-19T04:09:44.769Z,100998.69
2022-11-19T04:12:17.171Z,100991.41
2022-11-19T04:14:44.992Z,101010.38
2022-11-19T04:17:12.638Z,101000.00
2022-11-19T04:19:41.694Z,101020.00
2022-11-19T04:22:09.531Z,101018.31
2022-11-19T04:24:37.350Z,101027.06
2022-11-19T04:27:05.290Z,101024.44
2022-11-19T04:29:33.001Z,101029.47
2022-11-19T04:32:00.747Z,101041.44
2022-11-19T04:34:28.450Z,101025.78
2022-11-19T04:36:57.518Z,101041.63
2022-11-19T04:39:25.231Z,101036.38
2022-11-19T04:41:52.964Z,101041.69
2022-11-19T04:44:20.683Z,101050.56
2022-11-19T04:46:48.382Z,101028.53
2022-11-19T04:49:16.496Z,101045.03
2022-11-19T04:51:44.396Z,101042.41
2022-11-19T04:54:13.581Z,101060.69
2022-11-19T04:56:41.217Z,101052.22
2022-11-19T04:59:08.935Z,101049.69
2022-11-19T05:01:36.786Z,101051.50
2022-11-19T05:04:04.639Z,101059.53
2022-11-19T05:06:33.365Z,101047.69
2022-11-19T05:09:01.024Z,101054.59
2022-11-19T05:11:30.100Z,101050.31
2022-11-19T05:13:57.884Z,101061.59
2022-11-19T05:16:25.639Z,101069.69
2022-11-19T05:18:53.296Z,101065.88
2022-11-19T05:21:20.940Z,101065.22
2022-11-19T05:23:48.631Z,101068.75
2022-11-19T05:26:16.312Z,101074.91
2022-11-19T05:28:45.955Z,101077.59
2022-11-19T05:31:13.615Z,101068.00
2022-11-19T05:33:41.338Z,101068.06
2022-11-19T05:36:09.460Z,101080.56
2022-11-19T05:38:37.467Z,101080.22
2022-11-19T05:41:05.364Z,101081.47
2022-11-19T05:43:33.091Z,101091.25
2022-11-19T05:46:02.838Z,101094.03
2022-11-19T05:48:31.123Z,101087.31
2022-11-19T05:50:59.008Z,101090.19
2022-11-19T05:53:27.444Z,101092.09
2022-11-19T05:55:55.196Z,101091.47
2022-11-19T05:58:22.887Z,101086.47
2022-11-19T06:00:55.421Z,101091.00
2022-11-19T06:03:24.488Z,101094.50
2022-11-19T06:05:52.554Z,101096.50
2022-11-19T06:08:20.366Z,101100.16
2022-11-19T06:10:50.809Z,101100.22
2022-11-19T06:13:18.595Z,101096.91
2022-11-19T06:15:46.381Z,101107.31
2022-11-19T06:18:14.068Z,101103.00
2022-11-19T06:20:43.088Z,101123.88
2022-11-19T06:23:10.804Z,101117.00
2022-11-19T06:25:38.491Z,101124.06
2022-11-19T06:28:06.473Z,101123.25
2022-11-19T06:30:34.127Z,101127.00
2022-11-19T06:33:01.818Z,101145.97
2022-11-19T06:35:29.468Z,101131.34
2022-11-19T06:37:58.649Z,101131.34
2022-11-19T06:40:26.919Z,101138.50
2022-11-19T06:42:54.636Z,101149.69
2022-11-19T06:45:22.326Z,101145.34
2022-11-19T06:47:50.136Z,101155.69
2022-11-19T06:50:18.280Z,101155.75
2022-11-19T06:52:45.923Z,101156.81
2022-11-19T06:55:15.092Z,101148.94
2022-11-19T06:57:42.749Z,101163.03
2022-11-19T07:00:12.148Z,101157.97
2022-11-19T07:02:40.976Z,101154.53
2022-11-19T07:05:09.526Z,101167.69
2022-11-19T07:07:37.318Z,101169.50
2022-11-19T07:10:05.548Z,101170.47
2022-11-19T07:12:35.090Z,101175.59
2022-11-19T07:15:04.635Z,101178.31
2022-11-19T07:17:32.574Z,101179.13
2022-11-19T07:20:00.387Z,101185.22
2022-11-19T07:22:28.288Z,101173.22
2022-11-19T07:24:56.017Z,101180.22
2022-11-19T07:27:23.752Z,101183.78
2022-11-19T07:29:52.848Z,101182.09
2022-11-19T07:32:20.604Z,101181.13
2022-11-19T07:34:48.215Z,101187.13
2022-11-19T07:37:15.907Z,101193.22
2022-11-19T07:39:43.600Z,101200.19
2022-11-19T07:42:28.911Z,101203.69
2022-11-19T07:44:57.980Z,101203.84
2022-11-19T07:47:25.600Z,101216.75
2022-11-19T07:49:54.222Z,101208.06
2022-11-19T07:52:22.531Z,101204.63
2022-11-19T07:54:50.217Z,101209.84
2022-11-19T07:57:17.969Z,101218.53
2022-11-19T07:59:45.624Z,101217.75
2022-11-19T08:02:15.176Z,101222.03
2022-11-19T08:04:43.189Z,101229.84
2022-11-19T08:07:10.890Z,101225.34
2022-11-19T08:09:38.525Z,101226.09
2022-11-19T08:12:06.854Z,101230.38
2022-11-19T08:14:34.598Z,101225.88
2022-11-19T08:17:20.072Z,101239.69
2022-11-19T08:19:49.193Z,101240.66
2022-11-19T08:22:16.818Z,101242.34
2022-11-19T08:24:45.502Z,101244.91
2022-11-19T08:27:13.235Z,101244.88
2022-11-19T08:29:40.955Z,101250.09
2022-11-19T08:32:08.596Z,101252.75
2022-11-19T08:34:36.641Z,101254.47
2022-11-19T08:37:05.658Z,101249.13
2022-11-19T08:39:33.317Z,101252.56
2022-11-19T08:42:18.372Z,101251.72
2022-11-19T08:44:46.038Z,101252.56
2022-11-19T08:47:15.509Z,101255.03
2022-11-19T08:49:43.193Z,101258.25
2022-11-19T08:52:12.296Z,101262.34
2022-11-19T08:54:39.982Z,101259.66
2022-11-19T08:57:07.770Z,101254.50
2022-11-19T08:59:35.972Z,101254.44
2022-11-19T09:02:03.659Z,101255.34
2022-11-19T09:04:31.396Z,101262.13
2022-11-19T09:06:59.312Z,101266.44
2022-11-19T09:09:28.384Z,101265.44
2022-11-19T09:11:56.396Z,101263.63
2022-11-19T09:14:24.131Z,101257.50
2022-11-19T09:16:51.834Z,101272.03
2022-11-19T09:19:19.567Z,101273.69
2022-11-19T09:21:47.232Z,101266.59
2022-11-19T09:24:14.858Z,101275.13
2022-11-19T09:26:47.612Z,101277.59
2022-11-19T09:29:17.932Z,101279.22
2022-11-19T09:31:45.569Z,101272.06
2022-11-19T09:34:13.326Z,101286.63
2022-11-19T09:36:41.072Z,101274.38
2022-11-19T09:39:08.767Z,101279.44
2022-11-19T09:41:45.448Z,101279.38
2022-11-19T09:44:20.884Z,101270.44
2022-11-19T09:46:54.408Z,101279.03
2022-11-19T09:49:26.402Z,101275.72
2022-11-19T09:51:57.474Z,101279.91
2022-11-19T09:54:25.401Z,101281.28
2022-11-19T09:56:59.197Z,101285.34
2022-11-19T09:59:34.623Z,101279.94
2022-11-19T10:02:02.327Z,101285.84
2022-11-19T10:04:33.409Z,101291.56
2022-11-19T10:07:07.860Z,101275.00
2022-11-19T10:09:48.911Z,101285.63
2022-11-19T10:12:29.999Z,101287.09
2022-11-19T10:15:10.283Z,101287.78
2022-11-19T10:17:47.695Z,101292.88
2022-11-19T10:20:28.446Z,101290.03
2022-11-19T10:22:58.695Z,101291.72
2022-11-19T10:25:29.626Z,101285.63
2022-11-19T10:28:07.326Z,101297.53
2022-11-19T10:30:35.351Z,101292.25
2022-11-19T10:33:05.864Z,101292.16
2022-11-19T10:35:37.255Z,101295.47
2022-11-19T10:38:08.144Z,101289.34
2022-11-19T10:40:39.593Z,101299.47
2022-11-19T10:43:22.065Z,101286.31
2022-11-19T10:45:51.006Z,101294.00
2022-11-19T10:48:22.419Z,101291.34
2022-11-19T10:50:50.726Z,101284.16
2022-11-19T10:53:21.326Z,101287.88
2022-11-19T10:55:54.801Z,101286.59
2022-11-19T10:58:27.091Z,101292.47
2022-11-19T11:00:55.615Z,101279.22
2022-11-19T11:03:25.869Z,101282.53
2022-11-19T11:05:58.959Z,101288.38
2022-11-19T11:08:26.962Z,101278.00
2022-11-19T11:10:54.888Z,101277.91
2022-11-19T11:14:05.489Z,101275.25
2022-11-19T11:16:44.333Z,101270.94
2022-11-19T11:19:17.902Z,101278.44
2022-11-19T11:21:46.936Z,101275.78
2022-11-19T11:24:15.311Z,101274.97
2022-11-19T11:26:42.943Z,101277.53
2022-11-19T11:32:22.529Z,101280.63
2022-11-19T11:34:49.960Z,101272.38
2022-11-19T11:37:17.687Z,101274.41
2022-11-19T11:39:47.727Z,101277.44
2022-11-19T11:42:18.715Z,101277.34
2022-11-19T11:44:51.387Z,101275.44
2022-11-19T11:47:22.356Z,101274.50
2022-11-19T11:49:56.508Z,101281.31
2022-11-19T11:52:29.184Z,101273.22
2022-11-19T11:54:59.346Z,101269.75
2022-11-19T11:57:28.575Z,101270.28
2022-11-19T11:59:56.445Z,101263.53
2022-11-19T12:02:30.285Z,101264.09
2022-11-19T12:05:01.509Z,101271.81
2022-11-19T12:07:47.189Z,101260.78
2022-11-19T12:10:27.836Z,101257.53
2022-11-19T12:13:03.577Z,101264.09
2022-11-19T12:15:39.074Z,101265.66
2022-11-19T12:18:13.778Z,101255.19
2022-11-19T12:20:45.995Z,101251.09
2022-11-19T12:23:20.342Z,101251.38
2022-11-19T12:25:53.622Z,101245.16
2022-11-19T12:28:45.226Z,101249.47
2022-11-19T12:31:25.121Z,101252.22
2022-11-19T12:34:21.168Z,101247.13
2022-11-19T12:36:56.997Z,101241.03
2022-11-19T12:39:36.622Z,101237.47
2022-11-19T12:42:27.291Z,101242.53
2022-11-19T12:44:59.615Z,101246.84
2022-11-19T12:47:44.689Z,101246.00
2022-11-19T12:50:22.529Z,101237.47
2022-11-19T12:53:04.393Z,101243.47
2022-11-19T12:55:37.652Z,101251.31
2022-11-19T12:58:10.609Z,101240.06
2022-11-19T13:00:42.845Z,101248.53
2022-11-19T13:03:14.943Z,101242.41
2022-11-19T13:05:45.088Z,101242.19
2022-11-19T13:08:14.146Z,101245.97
2022-11-19T13:10:45.927Z,101242.81
2022-11-19T13:13:17.348Z,101239.00
2022-11-19T13:15:47.269Z,101237.97
2022-11-19T13:18:16.613Z,101238.66
2022-11-19T13:20:49.940Z,101232.47
2022-11-19T13:23:22.619Z,101232.38
2022-11-19T13:25:57.846Z,101246.16
2022-11-19T13:28:28.678Z,101235.00
2022-11-19T13:30:59.915Z,101234.22
2022-11-19T13:33:32.170Z,101230.81
2022-11-19T13:36:05.779Z,101241.28
2022-11-19T13:38:38.325Z,101233.44
2022-11-19T13:41:11.697Z,101234.28
2022-11-19T13:43:56.905Z,101229.97
2022-11-19T13:46:26.496Z,101234.44
2022-11-19T13:48:57.737Z,101226.66
2022-11-19T13:51:30.611Z,101236.28
2022-11-19T13:54:03.099Z,101247.75
2022-11-19T13:56:43.151Z,101242.75
2022-11-19T13:59:30.734Z,101240.28
2022-11-19T14:02:27.488Z,101243.03
2022-11-19T14:05:06.064Z,101241.13
2022-11-19T14:07:55.326Z,101244.56
2022-11-19T14:10:27.340Z,101236.81
2022-11-19T14:13:04.420Z,101231.34
2022-11-19T14:15:56.008Z,101241.28
2022-11-19T14:18:42.283Z,101241.84
2022-11-19T14:21:46.376Z,101235.28
2022-11-19T14:24:46.427Z,101232.16
2022-11-19T14:27:19.572Z,101234.25
2022-11-19T14:29:54.101Z,101238.03
2022-11-19T14:32:34.326Z,101232.56
2022-11-19T14:35:31.741Z,101227.19
2022-11-19T14:38:06.877Z,101230.88
2022-11-19T14:40:38.503Z,101237.13
2022-11-19T14:43:44.192Z,101231.72
2022-11-19T14:46:28.474Z,101221.38
2022-11-19T14:49:02.228Z,101230.97
2022-11-19T14:51:32.825Z,101226.03
2022-11-19T14:54:04.575Z,101237.25
2022-11-19T14:56:33.020Z,101239.09
2022-11-19T14:59:08.926Z,101237.50
2022-11-19T15:01:50.478Z,101248.09
2022-11-19T15:04:21.419Z,101250.78
2022-11-19T15:06:49.413Z,101249.09
2022-11-19T15:10:01.320Z,101247.41
2022-11-19T15:12:35.325Z,101251.78
2022-11-19T15:15:36.848Z,101249.25
2022-11-19T15:18:15.515Z,101249.09
2022-11-19T15:20:57.981Z,101264.13
2022-11-19T15:25:40.753Z,101263.56
2022-11-19T15:28:21.294Z,101261.94
2022-11-19T15:31:14.285Z,101257.75
2022-11-19T15:33:55.525Z,101259.97
2022-11-19T15:36:30.907Z,101265.22
2022-11-19T15:39:02.568Z,101268.03
2022-11-19T15:41:34.114Z,101264.69
2022-11-19T15:44:05.374Z,101265.81
2022-11-19T15:46:39.576Z,101266.00
2022-11-19T15:49:12.828Z,101258.34
2022-11-19T15:51:55.483Z,101261.16
2022-11-19T15:54:27.759Z,101261.25
2022-11-19T15:56:59.939Z,101239.06
2022-11-19T15:59:28.524Z,101254.31
2022-11-19T16:02:02.230Z,101254.63
2022-11-19T16:04:36.976Z,101252.03
2022-11-19T16:07:05.900Z,101247.09
2022-11-19T16:09:33.956Z,101250.72
2022-11-19T16:15:11.280Z,101252.16
2022-11-19T16:17:48.646Z,101245.63
2022-11-19T16:20:23.051Z,101250.03
2022-11-19T16:22:57.606Z,101254.59
2022-11-19T16:25:30.967Z,101261.75
2022-11-19T16:28:00.483Z,101259.38
2022-11-19T16:30:31.274Z,101259.50
2022-11-19T16:33:00.052Z,101238.19
2022-11-19T16:35:31.392Z,101254.44
2022-11-19T16:38:00.726Z,101253.72
2022-11-19T16:40:50.061Z,101248.75
2022-11-19T16:43:16.973Z,101260.06
2022-11-19T16:45:47.151Z,101257.56
2022-11-19T16:48:57.874Z,101261.09
2022-11-19T16:51:40.173Z,101258.66
2022-11-19T16:54:09.812Z,101256.09
2022-11-19T16:56:41.342Z,101257.13
2022-11-19T16:59:17.603Z,101256.28
2022-11-19T17:01:52.363Z,101265.94
2022-11-19T17:04:20.592Z,101269.53
2022-11-19T17:06:48.661Z,101275.72
2022-11-19T17:09:31.071Z,101267.09
2022-11-19T17:12:16.193Z,101267.28
2022-11-19T17:14:58.621Z,101276.06
2022-11-19T17:17:43.200Z,101277.19
2022-11-19T17:21:01.451Z,101280.66
2022-11-19T17:23:30.862Z,101286.13
2022-11-19T17:26:00.111Z,101282.69
2022-11-19T17:28:35.068Z,101279.25
2022-11-19T17:31:04.480Z,101277.72
2022-11-19T17:33:36.582Z,101283.66
2022-11-19T17:36:05.003Z,101282.88
2022-11-19T17:38:33.613Z,101290.75
2022-11-19T17:41:02.644Z,101281.31
2022-11-19T17:43:49.585Z,101297.75
2022-11-19T17:46:17.561Z,101300.53
2022-11-19T17:48:47.777Z,101289.25
2022-11-19T17:51:16.994Z,101282.44
2022-11-19T17:53:44.806Z,101292.13
2022-11-19T17:56:17.981Z,101298.19
2022-11-19T17:58:45.633Z,101291.34
2022-11-19T18:01:13.422Z,101284.88
2022-11-19T18:03:41.163Z,101287.81
2022-11-19T18:06:12.621Z,101284.69
2022-11-19T18:08:41.973Z,101290.16
2022-11-19T18:11:11.444Z,101287.66
2022-11-19T18:13:39.351Z,101285.16
2022-11-19T18:16:13.346Z,101286.91
2022-11-19T18:18:40.956Z,101295.72
2022-11-19T18:21:12.346Z,101281.06
2022-11-19T18:23:40.818Z,101276.84
2022-11-19T18:26:10.434Z,101287.31
2022-11-19T18:28:38.161Z,101274.56
2022-11-19T18:31:06.032Z,101279.78
2022-11-19T18:33:34.572Z,101287.69
2022-11-19T18:36:02.208Z,101293.81
2022-11-19T18:38:31.343Z,101281.66
2022-11-19T18:40:59.001Z,101282.63
2022-11-19T18:43:44.040Z,101279.25
2022-11-19T18:46:11.797Z,101287.09
2022-11-19T18:48:39.531Z,101287.94
2022-11-19T18:51:47.591Z,101291.19
2022-11-19T18:54:15.353Z,101291.94
2022-11-19T18:56:43.009Z,101286.78
2022-11-19T18:59:12.454Z,101286.00
2022-11-19T19:01:40.625Z,101288.69
2022-11-19T19:04:09.937Z,101281.84
2022-11-19T19:06:37.645Z,101281.13
2022-11-19T19:09:06.779Z,101294.09
2022-11-19T19:11:51.700Z,101299.41
2022-11-19T19:14:19.579Z,101293.41
2022-11-19T19:16:47.190Z,101292.59
2022-11-19T19:19:16.080Z,101285.69
2022-11-19T19:21:43.946Z,101292.69
2022-11-19T19:24:13.213Z,101284.94
2022-11-19T19:26:40.916Z,101282.47
2022-11-19T19:29:08.696Z,101283.31
2022-11-19T19:31:36.827Z,101285.06
2022-11-19T19:34:04.803Z,101283.31
2022-11-19T19:36:32.628Z,101294.69
2022-11-19T19:39:00.278Z,101293.97
2022-11-19T19:41:29.573Z,101286.22
2022-11-19T19:43:58.319Z,101283.75
2022-11-19T19:46:26.064Z,101278.72
2022-11-19T19:48:55.538Z,101277.81
2022-11-19T19:51:24.736Z,101274.44
2022-11-19T19:53:53.980Z,101280.53
2022-11-19T19:56:23.204Z,101258.28
2022-11-19T19:58:52.519Z,101271.06
2022-11-19T20:01:22.415Z,101252.25
2022-11-19T20:03:54.257Z,101264.28
2022-11-19T20:06:24.027Z,101270.41
2022-11-19T20:08:51.919Z,101272.19
2022-11-19T20:11:20.926Z,101266.31
2022-11-19T20:13:48.864Z,101275.03
2022-11-19T20:16:18.983Z,101268.13
2022-11-19T20:18:47.501Z,101260.44
2022-11-19T20:21:16.807Z,101261.34
2022-11-19T20:23:44.881Z,101267.44
2022-11-19T20:26:14.028Z,101269.34
2022-11-19T20:28:42.053Z,101277.94
2022-11-19T20:31:12.294Z,101279.63
2022-11-19T20:33:42.646Z,101278.72
2022-11-19T20:36:11.696Z,101278.78
2022-11-19T20:38:40.910Z,101277.09
2022-11-19T20:41:31.665Z,101281.44
2022-11-19T20:44:17.754Z,101279.81
2022-11-19T20:46:46.025Z,101275.69
2022-11-19T20:49:17.200Z,101279.91
2022-11-19T20:51:45.728Z,101282.63
2022-11-19T20:54:13.742Z,101275.78
2022-11-19T20:56:41.858Z,101277.50
2022-11-19T20:59:09.808Z,101278.44
2022-11-19T21:01:38.382Z,101276.81
2022-11-19T21:04:06.661Z,101276.91
2022-11-19T21:06:35.880Z,101274.38
2022-11-19T21:09:04.292Z,101277.88
2022-11-19T21:11:33.119Z,101276.16
2022-11-19T21:14:00.931Z,101276.25
2022-11-19T21:16:29.860Z,101276.25
2022-11-19T21:18:57.947Z,101274.53
2022-11-19T21:21:26.527Z,101267.59
2022-11-19T21:23:56.011Z,101266.75
2022-11-19T21:26:25.210Z,101252.13
2022-11-19T21:28:54.353Z,101256.53
2022-11-19T21:31:37.720Z,101254.03
2022-11-19T21:34:06.113Z,101254.09
2022-11-19T21:36:34.028Z,101258.56
2022-11-19T21:39:03.671Z,101260.34
2022-11-19T21:41:31.461Z,101259.56
2022-11-19T21:43:59.218Z,101255.28
2022-11-19T21:46:27.003Z,101266.56
2022-11-19T21:48:54.931Z,101259.69
2022-11-19T21:51:24.844Z,101268.25
2022-11-19T21:53:54.656Z,101258.72
2022-11-19T21:56:24.127Z,101255.38
2022-11-19T21:58:51.936Z,101256.34
2022-11-19T22:01:19.740Z,101256.44
2022-11-19T22:03:47.490Z,101262.56
2022-11-19T22:06:15.241Z,101263.38
2022-11-19T22:08:43.244Z,101259.94
2022-11-19T22:11:29.741Z,101253.03
2022-11-19T22:14:00.408Z,101250.63
2022-11-19T22:16:28.768Z,101241.19
2022-11-19T22:18:56.516Z,101243.91
2022-11-19T22:21:24.343Z,101250.84
2022-11-19T22:23:52.804Z,101239.66
2022-11-19T22:26:20.721Z,101244.91
2022-11-19T22:28:48.560Z,101244.09
2022-11-19T22:31:17.794Z,101238.06
2022-11-19T22:33:47.762Z,101234.56
2022-11-19T22:36:15.504Z,101238.13
2022-11-19T22:38:43.360Z,101233.00
2022-11-19T22:41:12.500Z,101233.00
2022-11-19T22:43:41.079Z,101230.44
2022-11-19T22:46:09.741Z,101224.34
2022-11-19T22:48:39.289Z,101225.16
2022-11-19T22:51:08.330Z,101214.03
2022-11-19T22:53:36.538Z,101209.72
2022-11-19T22:56:04.984Z,101212.34
2022-11-19T22:58:33.958Z,101205.53
2022-11-19T23:02:48.917Z,101200.81
2022-11-19T23:05:16.685Z,101213.75
2022-11-19T23:07:44.441Z,101209.50
2022-11-19T23:10:12.124Z,101212.16
2022-11-19T23:12:57.112Z,101205.44
2022-11-19T23:15:24.745Z,101197.03
2022-11-19T23:17:53.827Z,101202.22
2022-11-19T23:20:21.528Z,101203.22
2022-11-19T23:22:49.164Z,101198.94
2022-11-19T23:25:17.026Z,101214.56
2022-11-19T23:27:44.720Z,101201.66
2022-11-19T23:30:12.660Z,101199.13
2022-11-19T23:32:40.863Z,101201.84
2022-11-19T23:35:10.236Z,101199.28
2022-11-19T23:37:37.898Z,101207.13
2022-11-19T23:40:06.454Z,101210.56
2022-11-19T23:42:34.102Z,101210.63
2022-11-19T23:45:01.720Z,101210.66
2022-11-19T23:47:29.339Z,101202.22
2022-11-19T23:49:57.001Z,101208.19
2022-11-19T23:52:26.051Z,101220.31
2022-11-19T23:54:53.835Z,101226.38
2022-11-19T23:57:21.618Z,101227.38
2022-11-19T23:59:49.272Z,101222.25
